createdAt,value
2023-03-18T00:02:32.426Z,4.40
2023-03-18T00:07:36.043Z,8.85
2023-03-18T00:12:39.736Z,6.13
2023-03-18T00:17:44.098Z,8.82
2023-03-18T00:22:46.849Z,6.28
2023-03-18T00:27:49.945Z,7.65
2023-03-18T00:32:54.205Z,4.35
2023-03-18T00:37:58.404Z,9.25
2023-03-18T00:43:08.079Z,8.45
2023-03-18T00:48:12.255Z,10.45
2023-03-18T00:53:15.343Z,10.38
2023-03-18T00:58:18.164Z,6.43
2023-03-18T01:03:25.712Z,5.88
2023-03-18T01:08:29.881Z,8.23
2023-03-18T01:13:33.128Z,10.65
2023-03-18T01:18:38.189Z,6.82
2023-03-18T01:23:42.348Z,12.05
2023-03-18T01:28:45.717Z,9.30
2023-03-18T01:33:51.010Z,12.15
2023-03-18T01:38:53.896Z,10.60
2023-03-18T01:43:56.809Z,10.57
2023-03-18T01:49:03.935Z,12.05
2023-03-18T01:54:08.845Z,11.55
2023-03-18T01:59:12.445Z,10.75
2023-03-18T02:04:17.685Z,10.50
2023-03-18T02:09:20.602Z,10.32
2023-03-18T02:14:27.709Z,12.63
2023-03-18T02:19:46.270Z,11.00
2023-03-18T02:25:00.748Z,8.85
2023-03-18T02:30:09.303Z,13.90
2023-03-18T02:35:14.079Z,12.88
2023-03-18T02:40:19.588Z,16.98
2023-03-18T02:45:39.498Z,12.27
2023-03-18T02:50:50.204Z,9.85
2023-03-18T02:55:53.106Z,11.80
2023-03-18T03:00:58.458Z,15.32
2023-03-18T03:06:01.964Z,15.15
2023-03-18T03:11:05.542Z,11.20
2023-03-18T03:16:13.997Z,12.98
2023-03-18T03:21:17.021Z,9.48
2023-03-18T03:26:20.459Z,16.25
2023-03-18T03:31:27.264Z,14.40
2023-03-18T03:36:30.192Z,14.35
2023-03-18T03:41:33.960Z,11.25
2023-03-18T03:46:38.322Z,11.82
2023-03-18T03:51:41.737Z,9.10
2023-03-18T03:56:44.565Z,13.15
2023-03-18T04:01:48.963Z,11.70
2023-03-18T04:06:51.743Z,11.55
2023-03-18T04:11:54.713Z,14.77
2023-03-18T04:17:00.397Z,9.05
2023-03-18T04:22:04.638Z,10.27
2023-03-18T04:27:08.302Z,11.45
2023-03-18T04:32:12.801Z,9.77
2023-03-18T04:37:19.791Z,9.00
2023-03-18T04:42:24.792Z,12.55
2023-03-18T04:47:29.133Z,8.93
2023-03-18T04:52:33.612Z,10.13
2023-03-18T04:57:38.409Z,13.90
2023-03-18T05:02:45.593Z,7.95
2023-03-18T05:07:48.676Z,10.30
2023-03-18T05:12:54.434Z,8.77
2023-03-18T05:18:06.547Z,9.32
2023-03-18T05:23:10.451Z,10.50
2023-03-18T05:28:23.781Z,12.90
2023-03-18T05:33:43.744Z,14.15
2023-03-18T05:38:48.627Z,11.50
2023-03-18T05:43:51.726Z,10.20
2023-03-18T05:48:56.565Z,14.15
2023-03-18T05:54:05.075Z,11.23
2023-03-18T05:59:16.284Z,11.55
2023-03-18T06:04:28.073Z,10.02
2023-03-18T06:09:30.954Z,10.13
2023-03-18T06:14:34.307Z,7.57
2023-03-18T06:19:40.192Z,8.23
2023-03-18T06:24:46.547Z,7.35
2023-03-18T06:29:52.344Z,8.63
2023-03-18T06:34:57.176Z,11.52
2023-03-18T06:40:00.278Z,11.95
2023-03-18T06:45:03.763Z,9.80
2023-03-18T06:50:20.625Z,7.03
2023-03-18T06:55:23.867Z,7.45
2023-03-18T07:00:27.931Z,11.55
2023-03-18T07:05:33.013Z,8.98
2023-03-18T07:10:36.421Z,6.82
2023-03-18T07:15:45.379Z,7.55
2023-03-18T07:20:50.511Z,8.70
2023-03-18T07:25:53.428Z,8.45
2023-03-18T07:30:56.507Z,7.80
2023-03-18T07:36:01.098Z,6.72
2023-03-18T07:41:05.260Z,7.15
2023-03-18T07:46:08.178Z,9.00
2023-03-18T07:51:12.328Z,7.55
2023-03-18T07:56:15.057Z,9.10
2023-03-18T08:01:19.456Z,8.63
2023-03-18T08:06:23.979Z,10.35
2023-03-18T08:11:26.958Z,7.65
2023-03-18T08:16:29.796Z,9.70
2023-03-18T08:21:33.983Z,7.45
2023-03-18T08:26:36.913Z,7.00
2023-03-18T08:31:39.816Z,6.30
2023-03-18T08:36:45.046Z,7.18
2023-03-18T08:41:48.705Z,7.13
2023-03-18T08:46:51.535Z,9.85
2023-03-18T08:51:56.608Z,7.95
2023-03-18T08:57:00.572Z,8.30
2023-03-18T09:02:03.456Z,9.27
2023-03-18T09:07:07.662Z,7.88
2023-03-18T09:12:11.889Z,11.75
2023-03-18T09:17:14.709Z,8.18
2023-03-18T09:22:19.178Z,8.55
2023-03-18T09:27:21.990Z,11.25
2023-03-18T09:32:24.696Z,10.00
2023-03-18T09:37:28.910Z,10.25
2023-03-18T09:42:45.900Z,10.13
2023-03-18T09:48:02.183Z,11.20
2023-03-18T09:53:22.429Z,12.95
2023-03-18T09:58:29.187Z,16.73
2023-03-18T10:03:38.066Z,16.00
2023-03-18T10:08:53.614Z,12.77
2023-03-18T10:14:18.400Z,13.40
2023-03-18T10:19:21.131Z,11.32
2023-03-18T10:24:33.910Z,11.95
2023-03-18T10:29:42.901Z,8.63
2023-03-18T10:34:58.097Z,11.20
2023-03-18T10:40:03.353Z,9.65
2023-03-18T10:45:17.214Z,15.88
2023-03-18T10:50:25.381Z,12.48
2023-03-18T10:55:34.337Z,13.52
2023-03-18T11:00:37.367Z,7.88
2023-03-18T11:05:40.286Z,5.88
2023-03-18T11:10:48.080Z,10.68
2023-03-18T11:15:52.886Z,8.70
2023-03-18T11:21:00.598Z,8.45
2023-03-18T11:26:09.416Z,4.70
2023-03-18T11:31:18.776Z,4.93
2023-03-18T11:36:24.974Z,7.00
2023-03-18T11:41:30.321Z,4.43
2023-03-18T11:46:38.651Z,2.50
2023-03-18T11:51:48.453Z,4.35
2023-03-18T11:56:57.237Z,2.85
2023-03-18T12:02:14.108Z,4.45
2023-03-18T12:07:31.259Z,5.10
2023-03-18T12:12:49.655Z,3.40
2023-03-18T12:18:02.651Z,2.78
2023-03-18T12:23:11.928Z,3.33
2023-03-18T12:28:32.727Z,3.20
2023-03-18T12:33:51.844Z,3.45
2023-03-18T12:39:09.966Z,2.92
2023-03-18T12:44:24.164Z,4.05
2023-03-18T12:49:33.963Z,1.85
2023-03-18T12:54:42.892Z,3.67
2023-03-18T12:59:53.721Z,2.33
2023-03-18T13:05:00.698Z,2.85
2023-03-18T13:10:09.863Z,2.38
2023-03-18T13:15:24.554Z,2.47
2023-03-18T13:20:31.722Z,3.30
2023-03-18T13:25:41.841Z,1.95
2023-03-18T13:31:00.757Z,2.78
2023-03-18T13:36:40.628Z,2.20
2023-03-18T13:41:59.021Z,2.00
2023-03-18T13:47:07.350Z,2.28
2023-03-18T13:52:25.499Z,2.03
2023-03-18T13:57:36.143Z,2.50
2023-03-18T14:02:47.978Z,4.72
2023-03-18T14:07:50.810Z,5.40
2023-03-18T14:12:53.669Z,6.68
2023-03-18T14:17:59.125Z,3.20
2023-03-18T14:23:25.067Z,3.30
2023-03-18T14:28:28.565Z,3.60
2023-03-18T14:33:48.385Z,2.92
2023-03-18T14:39:01.865Z,3.80
2023-03-18T14:44:12.494Z,3.35
2023-03-18T14:49:39.872Z,2.73
2023-03-18T14:54:45.872Z,3.67
2023-03-18T14:59:48.685Z,2.60
2023-03-18T15:04:55.404Z,3.75
2023-03-18T15:09:58.924Z,3.63
2023-03-18T15:15:01.698Z,2.90
2023-03-18T15:20:07.010Z,1.30
2023-03-18T15:25:18.753Z,3.28
2023-03-18T15:30:26.522Z,1.83
2023-03-18T15:35:31.968Z,1.70
2023-03-18T15:40:36.647Z,2.05
2023-03-18T15:45:45.717Z,2.58
2023-03-18T15:50:56.160Z,3.03
2023-03-18T15:56:08.407Z,2.97
2023-03-18T16:01:17.168Z,3.78
2023-03-18T16:06:22.707Z,4.38
2023-03-18T16:11:26.171Z,3.28
2023-03-18T16:16:30.531Z,4.82
2023-03-18T16:21:34.682Z,30.08
2023-03-18T16:26:37.873Z,9.55
2023-03-18T16:31:40.822Z,7.75
2023-03-18T16:36:45.942Z,3.08
2023-03-18T16:41:49.650Z,6.40
2023-03-18T16:46:54.886Z,3.20
2023-03-18T16:51:59.247Z,4.80
2023-03-18T16:57:04.589Z,2.33
2023-03-18T17:02:25.520Z,2.35
2023-03-18T17:07:29.737Z,2.15
2023-03-18T17:12:32.508Z,3.13
2023-03-18T17:17:36.717Z,3.97
2023-03-18T17:22:40.998Z,4.20
2023-03-18T17:27:46.208Z,2.67
2023-03-18T17:32:50.134Z,5.25
2023-03-18T17:37:54.566Z,7.60
2023-03-18T17:42:57.561Z,7.40
2023-03-18T17:48:15.955Z,5.45
2023-03-18T17:53:30.803Z,4.80
2023-03-18T17:58:34.929Z,11.35
2023-03-18T18:03:40.389Z,10.38
2023-03-18T18:08:44.756Z,52.20
2023-03-18T18:13:48.131Z,15.93
2023-03-18T18:18:51.517Z,11.75
2023-03-18T18:23:56.069Z,11.90
2023-03-18T18:28:58.835Z,24.30
2023-03-18T18:34:01.744Z,13.20
2023-03-18T18:39:06.291Z,13.02
2023-03-18T18:44:09.361Z,13.63
2023-03-18T18:49:21.955Z,13.55
2023-03-18T18:59:31.854Z,16.92
2023-03-18T19:04:34.860Z,17.27
2023-03-18T19:09:46.422Z,15.88
2023-03-18T19:14:49.356Z,15.23
2023-03-18T19:19:53.704Z,17.13
2023-03-18T19:24:58.695Z,13.02
2023-03-18T19:30:05.419Z,14.63
2023-03-18T19:35:11.021Z,18.73
2023-03-18T19:40:24.323Z,16.83
2023-03-18T19:45:27.260Z,18.88
2023-03-18T19:50:29.983Z,18.05
2023-03-18T19:55:34.112Z,21.13
2023-03-18T20:00:36.856Z,18.73
2023-03-18T20:05:39.616Z,20.50
2023-03-18T20:10:44.667Z,27.13
2023-03-18T20:15:48.884Z,21.58
2023-03-18T20:20:52.440Z,22.67
2023-03-18T20:25:57.061Z,21.23
2023-03-18T20:31:00.808Z,22.13
2023-03-18T20:36:04.177Z,18.75
2023-03-18T20:41:08.303Z,24.20
2023-03-18T20:46:14.212Z,20.50
2023-03-18T20:51:22.149Z,24.77
2023-03-18T20:56:27.563Z,28.40
2023-03-18T21:01:30.392Z,32.10
2023-03-18T21:06:33.203Z,27.83
2023-03-18T21:11:38.620Z,30.05
2023-03-18T21:16:41.668Z,28.25
2023-03-18T21:21:44.463Z,31.10
2023-03-18T21:27:03.130Z,26.38
2023-03-18T21:32:07.328Z,21.58
2023-03-18T21:37:15.960Z,22.30
2023-03-18T21:42:24.206Z,19.17
2023-03-18T21:47:27.395Z,17.45
2023-03-18T21:52:33.341Z,13.52
2023-03-18T21:57:37.976Z,13.32
2023-03-18T22:02:41.109Z,14.40
2023-03-18T22:07:43.926Z,17.23
2023-03-18T22:12:48.141Z,14.15
2023-03-18T22:17:51.980Z,13.63
2023-03-18T22:22:55.104Z,17.80
2023-03-18T22:28:00.385Z,15.75
2023-03-18T22:33:05.416Z,13.82
2023-03-18T22:38:12.159Z,13.80
2023-03-18T22:43:29.364Z,16.27
2023-03-18T22:48:32.888Z,13.50
2023-03-18T22:53:38.003Z,18.27
2023-03-18T22:58:42.456Z,17.77
2023-03-18T23:03:46.858Z,21.88
2023-03-18T23:08:49.645Z,18.85
2023-03-18T23:13:53.879Z,18.02
2023-03-18T23:18:56.621Z,15.88
2023-03-18T23:23:59.332Z,15.00
2023-03-18T23:29:03.657Z,17.35
2023-03-18T23:34:06.670Z,15.80
2023-03-18T23:39:09.412Z,17.33
2023-03-18T23:44:13.486Z,19.48
2023-03-18T23:49:16.586Z,21.80
2023-03-18T23:54:19.308Z,19.08
2023-03-18T23:59:23.769Z,19.30
